Time;durP1;ratioP1;P1;durP2;ratioP2;P2;SDS_P1;SDS_P2;PMS_P1;PMS_P2;Temp;Humidity;BMP_temperature;BMP_pressure;BME280_temperature;BME280_humidity;BME280_pressure;Samples;Min_cycle;Max_cycle;Signal;HPM_P1;HPM_P2
2023/06/24 00:01:24;;;;;;;24.17;14.82;;;;;;;18.88;100.00;102331.91;5109108;28;20020;-72
2023/06/24 00:03:52;;;;;;;21.13;13.20;;;;;;;18.87;100.00;102322.97;5109273;28;20027;-72
2023/06/24 00:06:22;;;;;;;20.98;14.20;;;;;;;18.89;100.00;102323.59;5109403;28;20050;-72
2023/06/24 00:08:48;;;;;;;21.38;12.88;;;;;;;18.94;100.00;102329.19;5109378;28;20363;-72
2023/06/24 00:11:13;;;;;;;19.77;11.90;;;;;;;18.97;100.00;102326.03;5109103;28;20561;-72
2023/06/24 00:13:40;;;;;;;22.60;11.68;;;;;;;18.99;100.00;102325.78;5109281;28;20118;-72
2023/06/24 00:16:06;;;;;;;20.42;13.23;;;;;;;19.00;100.00;102328.31;5109275;28;20107;-72
2023/06/24 00:18:32;;;;;;;20.30;12.38;;;;;;;18.98;100.00;102324.16;5109174;28;20042;-72
2023/06/24 00:20:57;;;;;;;19.70;12.35;;;;;;;19.00;100.00;102332.88;5108983;28;20032;-72
2023/06/24 00:23:26;;;;;;;19.70;11.05;;;;;;;18.98;100.00;102337.66;5109189;28;20080;-72
2023/06/24 00:25:52;;;;;;;20.65;13.38;;;;;;;18.97;100.00;102328.72;5109121;28;20080;-72
2023/06/24 00:28:17;;;;;;;21.10;10.80;;;;;;;18.94;100.00;102344.53;5107867;28;20035;-74
2023/06/24 00:30:43;;;;;;;18.67;10.43;;;;;;;18.91;100.00;102351.22;5109017;28;20382;-72
2023/06/24 00:33:10;;;;;;;23.15;14.00;;;;;;;18.86;100.00;102347.50;5107693;28;20031;-72
2023/06/24 00:35:37;;;;;;;21.52;13.27;;;;;;;18.79;100.00;102342.97;5113365;28;20088;-72
2023/06/24 00:38:03;;;;;;;24.25;15.25;;;;;;;18.73;100.00;102357.31;5112990;28;20082;-72
2023/06/24 00:40:28;;;;;;;23.50;15.35;;;;;;;18.70;100.00;102346.91;5113211;28;20051;-72
2023/06/24 00:42:55;;;;;;;22.70;14.35;;;;;;;18.63;100.00;102354.22;5113051;28;20031;-72
2023/06/24 00:45:20;;;;;;;22.48;13.77;;;;;;;18.60;100.00;102352.78;5112872;28;20351;-72
2023/06/24 00:47:46;;;;;;;23.48;15.57;;;;;;;18.58;100.00;102362.16;5112338;28;20031;-73
2023/06/24 00:50:12;;;;;;;21.33;15.07;;;;;;;18.57;100.00;102365.88;5112724;28;20027;-72
2023/06/24 00:52:42;;;;;;;22.08;14.77;;;;;;;18.56;100.00;102365.06;5112280;28;20051;-72
2023/06/24 00:55:08;;;;;;;23.92;15.07;;;;;;;18.59;100.00;102361.91;5112642;28;20024;-72
2023/06/24 00:57:38;;;;;;;22.65;15.40;;;;;;;18.57;100.00;102364.00;5112529;28;20126;-72
2023/06/24 01:00:09;;;;;;;23.25;15.70;;;;;;;18.51;100.00;102359.44;5112525;28;20483;-72
2023/06/24 01:02:37;;;;;;;21.90;15.03;;;;;;;18.39;100.00;102353.88;5112651;28;20023;-72
2023/06/24 01:05:07;;;;;;;24.55;16.48;;;;;;;18.38;100.00;102354.09;5112549;28;20034;-72
2023/06/24 01:07:35;;;;;;;22.88;16.30;;;;;;;18.38;100.00;102349.50;5112465;28;20069;-72
2023/06/24 01:10:02;;;;;;;24.95;16.00;;;;;;;18.32;100.00;102344.13;5112444;28;20023;-72
2023/06/24 01:12:28;;;;;;;24.08;16.92;;;;;;;18.28;100.00;102348.28;5112147;28;20498;-72
2023/06/24 01:14:54;;;;;;;24.45;15.27;;;;;;;18.27;100.00;102352.03;5112139;28;20055;-72
2023/06/24 01:17:30;;;;;;;25.20;15.57;;;;;;;18.21;100.00;102350.16;5112473;28;20058;-72
2023/06/24 01:20:05;;;;;;;21.23;15.48;;;;;;;18.11;100.00;102342.53;5112158;28;20520;-72
2023/06/24 01:22:36;;;;;;;21.05;15.80;;;;;;;18.03;100.00;102340.03;5112340;28;20239;-72
2023/06/24 01:25:26;;;;;;;21.90;15.32;;;;;;;17.94;100.00;102336.72;5112038;28;20466;-72
2023/06/24 01:28:05;;;;;;;21.67;15.13;;;;;;;17.90;100.00;102339.00;5110612;28;20055;-72
2023/06/24 01:30:49;;;;;;;23.17;15.15;;;;;;;17.85;100.00;102332.59;5112340;28;20039;-73
2023/06/24 01:33:22;;;;;;;25.70;14.20;;;;;;;17.85;100.00;102335.28;5111913;28;20027;-72
2023/06/24 01:35:48;;;;;;;24.10;16.85;;;;;;;17.80;100.00;102337.78;5111896;28;20039;-72
2023/06/24 01:38:24;;;;;;;22.88;15.48;;;;;;;17.74;100.00;102328.63;5111930;28;20049;-73
2023/06/24 01:40:51;;;;;;;29.08;17.90;;;;;;;17.69;100.00;102326.53;5111811;28;20027;-72
2023/06/24 01:43:18;;;;;;;22.98;15.95;;;;;;;17.69;100.00;102336.50;5111745;28;20019;-72
2023/06/24 01:45:49;;;;;;;24.17;16.13;;;;;;;17.64;100.00;102337.13;5111327;28;20055;-72
2023/06/24 01:48:35;;;;;;;22.85;16.52;;;;;;;17.63;100.00;102332.78;5111985;28;20027;-72
2023/06/24 01:51:12;;;;;;;24.10;14.63;;;;;;;17.60;100.00;102325.06;5111688;28;20024;-73
2023/06/24 01:53:51;;;;;;;22.33;15.85;;;;;;;17.55;100.00;102327.56;5111326;28;20126;-72
2023/06/24 01:56:18;;;;;;;24.23;15.32;;;;;;;17.53;100.00;102324.25;5111472;28;20035;-73
2023/06/24 01:58:46;;;;;;;22.90;15.73;;;;;;;17.56;100.00;102325.72;5111743;28;20133;-73
2023/06/24 02:01:13;;;;;;;22.20;15.10;;;;;;;17.48;100.00;102318.66;5109942;28;20027;-72
2023/06/24 02:03:41;;;;;;;24.00;15.35;;;;;;;17.50;100.00;102319.25;5111347;28;20101;-72
2023/06/24 02:06:09;;;;;;;25.98;14.90;;;;;;;17.44;100.00;102318.22;5111233;28;20516;-72
2023/06/24 02:08:37;;;;;;;24.25;16.42;;;;;;;17.39;100.00;102326.09;5109920;28;20111;-72
2023/06/24 02:11:03;;;;;;;26.73;18.35;;;;;;;17.25;100.00;102316.34;5111202;28;20194;-72
2023/06/24 02:13:32;;;;;;;21.95;14.80;;;;;;;17.30;100.00;102317.38;5110210;28;20057;-72
2023/06/24 02:16:00;;;;;;;24.58;16.30;;;;;;;17.31;100.00;102320.91;5111088;28;20164;-72
2023/06/24 02:18:27;;;;;;;23.55;15.85;;;;;;;17.20;100.00;102308.03;5109553;28;20027;-72
2023/06/24 02:20:54;;;;;;;24.27;17.33;;;;;;;17.25;100.00;102316.34;5111022;28;20108;-72
2023/06/24 02:23:22;;;;;;;25.33;17.02;;;;;;;17.21;100.00;102318.63;5111037;28;20485;-72
2023/06/24 02:25:49;;;;;;;21.65;16.00;;;;;;;17.18;100.00;102324.41;5111400;28;20035;-72
2023/06/24 02:28:16;;;;;;;22.60;16.15;;;;;;;17.21;100.00;102320.47;5110882;28;20080;-72
2023/06/24 02:30:42;;;;;;;23.42;17.15;;;;;;;17.19;100.00;102325.25;5110781;28;20484;-72
2023/06/24 02:33:09;;;;;;;21.65;15.57;;;;;;;17.17;100.00;102317.34;5110705;28;20024;-72
2023/06/24 02:35:34;;;;;;;23.00;16.70;;;;;;;17.16;100.00;102313.00;5110739;28;20055;-72
2023/06/24 02:38:00;;;;;;;25.08;16.52;;;;;;;17.10;100.00;102316.50;5110643;28;20136;-72
2023/06/24 02:40:27;;;;;;;20.83;14.48;;;;;;;17.09;100.00;102312.16;5110619;28;20041;-72
2023/06/24 02:42:52;;;;;;;23.90;15.35;;;;;;;17.09;100.00;102317.56;5110645;28;20027;-73
2023/06/24 02:45:18;;;;;;;19.50;13.27;;;;;;;17.08;100.00;102308.63;5110448;28;20071;-73
2023/06/24 02:47:46;;;;;;;21.48;14.68;;;;;;;17.04;100.00;102310.06;5110372;28;20115;-72
2023/06/24 02:50:12;;;;;;;21.95;13.98;;;;;;;16.96;100.00;102309.44;5110286;28;20032;-72
2023/06/24 02:52:38;;;;;;;19.05;13.25;;;;;;;16.97;100.00;102317.28;5109906;28;20052;-72
2023/06/24 02:55:05;;;;;;;20.38;11.20;;;;;;;16.95;100.00;102324.78;5110336;28;20434;-72
2023/06/24 02:57:31;;;;;;;15.23;9.32;;;;;;;16.93;100.00;102323.31;5109628;28;20034;-72
2023/06/24 02:59:57;;;;;;;18.20;9.90;;;;;;;16.92;100.00;102330.56;5110422;28;20023;-72
2023/06/24 03:02:23;;;;;;;17.25;9.32;;;;;;;16.92;100.00;102324.34;5110349;28;20530;-72
2023/06/24 03:04:51;;;;;;;15.48;8.45;;;;;;;16.92;100.00;102335.13;5110101;28;20041;-73
2023/06/24 03:07:20;;;;;;;14.30;8.93;;;;;;;16.92;100.00;102335.13;5110013;28;20390;-72
2023/06/24 03:09:46;;;;;;;22.05;11.25;;;;;;;16.91;100.00;102342.38;5110194;28;20112;-72
2023/06/24 03:12:11;;;;;;;17.58;11.30;;;;;;;16.90;100.00;102342.56;5109964;28;20059;-72
2023/06/24 03:14:37;;;;;;;17.38;10.18;;;;;;;16.86;100.00;102337.59;5109973;28;20040;-72
2023/06/24 03:17:03;;;;;;;20.02;13.02;;;;;;;16.86;100.00;102336.75;5109913;28;20552;-72
2023/06/24 03:19:28;;;;;;;19.23;11.65;;;;;;;16.74;100.00;102314.09;5109861;28;20036;-72
2023/06/24 03:21:53;;;;;;;16.02;9.68;;;;;;;16.82;100.00;102324.72;5109792;28;20519;-72
2023/06/24 03:24:19;;;;;;;17.05;10.32;;;;;;;16.82;100.00;102324.72;5109753;28;20475;-72
2023/06/24 03:26:44;;;;;;;20.25;12.32;;;;;;;16.84;100.00;102326.16;5109585;28;20055;-72
2023/06/24 03:29:11;;;;;;;18.80;10.63;;;;;;;16.88;100.00;102326.63;5109757;28;20028;-72
2023/06/24 03:31:37;;;;;;;18.20;10.90;;;;;;;16.88;100.00;102328.47;5109537;28;20122;-72
2023/06/24 03:34:02;;;;;;;19.15;11.13;;;;;;;16.91;100.00;102326.22;5109618;28;20110;-72
2023/06/24 03:36:27;;;;;;;19.88;10.60;;;;;;;16.94;100.00;102330.34;5109444;28;20058;-72
2023/06/24 03:38:53;;;;;;;19.20;11.85;;;;;;;16.93;100.00;102329.53;5109810;28;20023;-72
2023/06/24 03:41:18;;;;;;;18.20;10.48;;;;;;;16.91;100.00;102328.06;5109466;28;20535;-72
2023/06/24 03:43:44;;;;;;;30.92;12.48;;;;;;;16.88;100.00;102325.78;5109644;28;20023;-72
2023/06/24 03:46:11;;;;;;;19.80;12.80;;;;;;;16.88;100.00;102334.69;5109693;28;20356;-72
2023/06/24 03:48:36;;;;;;;19.95;11.85;;;;;;;16.90;100.00;102334.47;5109458;28;20023;-72
2023/06/24 03:51:01;;;;;;;17.65;11.75;;;;;;;16.85;100.00;102330.53;5109144;28;20080;-72
2023/06/24 03:53:27;;;;;;;18.17;11.82;;;;;;;16.90;100.00;102337.19;5109121;28;20158;-72
2023/06/24 03:55:52;;;;;;;19.15;11.52;;;;;;;16.91;100.00;102338.84;5109287;28;20067;-72
2023/06/24 03:58:20;;;;;;;20.85;11.70;;;;;;;16.95;100.00;102346.34;5109246;28;20031;-72
2023/06/24 04:00:47;;;;;;;21.48;12.82;;;;;;;16.93;100.00;102344.88;5109324;28;20034;-72
2023/06/24 04:03:12;;;;;;;20.45;12.93;;;;;;;16.95;100.00;102348.19;5109372;28;20023;-72
2023/06/24 04:05:38;;;;;;;19.45;12.30;;;;;;;16.97;100.00;102348.81;5109201;28;20429;-72
2023/06/24 04:08:05;;;;;;;20.20;11.95;;;;;;;16.95;100.00;102345.50;5110966;28;20034;-72
2023/06/24 04:10:31;;;;;;;19.75;13.77;;;;;;;16.94;100.00;102341.97;5113686;28;20494;-72
2023/06/24 04:12:56;;;;;;;18.60;11.77;;;;;;;16.98;100.00;102353.19;5113274;28;20031;-72
2023/06/24 04:15:21;;;;;;;17.65;11.25;;;;;;;16.99;100.00;102339.50;5113286;28;20032;-72
2023/06/24 04:17:47;;;;;;;18.60;11.65;;;;;;;17.05;100.00;102344.06;5113154;28;20027;-72
2023/06/24 04:20:12;;;;;;;17.92;12.55;;;;;;;17.09;100.00;102348.03;5113201;28;20047;-72
2023/06/24 04:22:40;;;;;;;18.98;12.60;;;;;;;17.13;100.00;102347.63;5113134;28;20063;-72
2023/06/24 04:25:06;;;;;;;18.58;11.30;;;;;;;17.18;100.00;102347.84;5113240;28;20482;-72
2023/06/24 04:27:33;;;;;;;16.65;10.93;;;;;;;17.18;100.00;102345.16;5113202;28;20041;-72
2023/06/24 04:29:58;;;;;;;18.23;11.00;;;;;;;17.21;100.00;102350.13;5113200;28;20057;-72
2023/06/24 04:32:24;;;;;;;18.60;11.50;;;;;;;17.21;100.00;102345.59;5111626;28;20028;-72
2023/06/24 04:34:49;;;;;;;19.10;13.63;;;;;;;17.19;100.00;102344.13;5112887;28;20095;-72
2023/06/24 04:37:15;;;;;;;21.20;13.98;;;;;;;17.29;100.00;102355.31;5112858;28;20045;-72
2023/06/24 04:39:41;;;;;;;20.08;13.93;;;;;;;17.28;100.00;102341.00;5112971;28;20023;-72
2023/06/24 04:42:06;;;;;;;22.23;14.25;;;;;;;17.56;100.00;102345.41;5112867;28;20536;-72
2023/06/24 04:44:31;;;;;;;21.10;14.75;;;;;;;18.21;100.00;102353.72;5112725;28;20031;-72
2023/06/24 04:46:57;;;;;;;20.35;15.18;;;;;;;18.53;100.00;102357.38;5112930;28;20503;-72
2023/06/24 04:49:22;;;;;;;22.88;17.05;;;;;;;18.49;99.88;102364.22;5112601;28;20446;-72
2023/06/24 04:51:47;;;;;;;22.75;15.02;;;;;;;18.52;98.84;102357.56;5112366;28;20565;-72
2023/06/24 04:54:13;;;;;;;20.25;12.40;;;;;;;18.45;99.24;102359.50;5112508;28;20035;-72
2023/06/24 04:56:39;;;;;;;19.88;14.43;;;;;;;18.27;100.00;102368.25;5112691;28;20063;-72
2023/06/24 04:59:05;;;;;;;22.30;14.43;;;;;;;18.20;100.00;102362.84;5112565;28;20031;-72
2023/06/24 05:01:30;;;;;;;21.92;15.45;;;;;;;18.16;100.00;102361.63;5112516;28;20476;-72
2023/06/24 05:03:55;;;;;;;19.55;13.23;;;;;;;18.14;100.00;102352.91;5112381;28;20030;-72
2023/06/24 05:06:21;;;;;;;20.15;13.20;;;;;;;18.17;100.00;102361.41;5112232;28;20038;-72
2023/06/24 05:08:46;;;;;;;20.67;14.23;;;;;;;18.67;99.07;102370.84;5112399;27;20430;-72
2023/06/24 05:11:11;;;;;;;21.17;13.18;;;;;;;18.98;96.68;102362.84;5112153;28;20031;-72
2023/06/24 05:13:37;;;;;;;20.52;14.13;;;;;;;18.94;96.74;102366.16;5112281;28;20042;-72
2023/06/24 05:16:02;;;;;;;20.05;13.40;;;;;;;18.80;96.80;102366.25;5112227;28;20054;-72
2023/06/24 05:18:28;;;;;;;21.25;14.48;;;;;;;18.67;96.60;102360.84;5110726;28;20031;-72
2023/06/24 05:20:53;;;;;;;21.73;12.98;;;;;;;18.61;96.96;102359.84;5111295;28;20111;-72
2023/06/24 05:23:18;;;;;;;18.52;13.60;;;;;;;18.53;97.09;102354.69;5112192;28;20058;-72
2023/06/24 05:25:44;;;;;;;20.38;14.48;;;;;;;18.52;97.92;102354.88;5112128;28;20382;-72
2023/06/24 05:28:09;;;;;;;20.42;13.50;;;;;;;18.49;98.13;102358.81;5111989;28;20027;-72
2023/06/24 05:30:34;;;;;;;18.95;11.98;;;;;;;18.48;97.07;102357.19;5111947;28;20027;-72
2023/06/24 05:33:00;;;;;;;18.90;12.68;;;;;;;18.47;97.04;102366.34;5110456;28;20085;-72
2023/06/24 05:35:25;;;;;;;21.98;13.80;;;;;;;18.48;98.04;102359.06;5112047;28;20483;-73
2023/06/24 05:37:50;;;;;;;22.10;14.00;;;;;;;18.48;97.76;102372.56;5111920;28;20112;-73
2023/06/24 05:40:16;;;;;;;20.17;12.48;;;;;;;18.49;97.67;102366.94;5111544;28;20076;-72
2023/06/24 05:42:41;;;;;;;22.58;12.55;;;;;;;18.55;98.07;102367.97;5111569;28;20031;-72
2023/06/24 05:45:07;;;;;;;19.13;12.13;;;;;;;18.60;98.25;102370.84;5111731;28;20034;-72
2023/06/24 05:47:33;;;;;;;20.25;13.23;;;;;;;18.66;98.61;102363.78;5111566;28;20118;-72
2023/06/24 05:49:58;;;;;;;19.42;12.27;;;;;;;18.74;98.67;102363.53;5111521;28;20028;-73
2023/06/24 05:52:24;;;;;;;19.40;12.70;;;;;;;18.82;97.72;102364.16;5111116;28;20089;-73
2023/06/24 05:54:49;;;;;;;21.85;13.57;;;;;;;18.86;98.00;102369.94;5111610;28;20039;-72
2023/06/24 05:57:14;;;;;;;20.75;12.50;;;;;;;18.94;97.44;102369.72;5111537;28;20077;-72
2023/06/24 05:59:40;;;;;;;20.33;11.73;;;;;;;19.10;98.43;102362.13;5111360;28;20083;-72
2023/06/24 06:02:05;;;;;;;22.60;13.60;;;;;;;19.16;97.87;102367.53;5111099;28;20061;-72
2023/06/24 06:04:30;;;;;;;20.33;11.32;;;;;;;19.09;95.42;102364.03;5111255;28;20027;-72
2023/06/24 06:06:56;;;;;;;19.75;12.82;;;;;;;19.08;96.58;102361.56;5111202;28;20089;-72
2023/06/24 06:09:22;;;;;;;22.55;13.60;;;;;;;19.05;95.93;102373.63;5111149;28;20038;-72
2023/06/24 06:11:47;;;;;;;21.50;12.82;;;;;;;19.03;96.16;102368.41;5111128;28;20032;-72
2023/06/24 06:14:13;;;;;;;20.67;12.10;;;;;;;19.05;96.28;102371.75;5111026;28;20080;-72
2023/06/24 06:16:39;;;;;;;19.23;11.95;;;;;;;19.12;95.79;102384.41;5111002;28;20031;-73
2023/06/24 06:19:04;;;;;;;19.63;11.15;;;;;;;19.17;96.41;102371.88;5110887;28;20033;-73
2023/06/24 06:21:29;;;;;;;18.58;11.45;;;;;;;19.24;96.00;102369.16;5110840;28;20513;-72
2023/06/24 06:23:55;;;;;;;18.88;11.13;;;;;;;19.30;95.20;102375.56;5110852;28;20428;-72
2023/06/24 06:26:21;;;;;;;19.05;11.77;;;;;;;19.30;93.14;102373.69;5109571;28;20039;-73
2023/06/24 06:28:47;;;;;;;22.33;13.38;;;;;;;19.35;93.54;102383.84;5110807;28;20111;-72
2023/06/24 06:31:13;;;;;;;20.15;11.23;;;;;;;19.39;92.72;102385.09;5109615;27;20073;-72
2023/06/24 06:33:38;;;;;;;21.70;11.98;;;;;;;19.46;93.37;102385.84;5110705;28;20027;-72
2023/06/24 06:36:04;;;;;;;19.58;12.20;;;;;;;19.48;92.77;102373.75;5110602;28;20451;-72
2023/06/24 06:38:29;;;;;;;16.55;10.05;;;;;;;19.49;93.04;102380.00;5110523;28;20043;-72
2023/06/24 06:40:54;;;;;;;17.52;9.93;;;;;;;19.54;91.23;102377.47;5110521;28;20020;-72
2023/06/24 06:43:21;;;;;;;15.40;8.68;;;;;;;19.55;88.82;102381.84;5110515;28;20028;-72
2023/06/24 06:45:46;;;;;;;19.17;10.68;;;;;;;19.56;87.05;102374.56;5110523;28;20100;-73
2023/06/24 06:48:12;;;;;;;17.48;9.43;;;;;;;19.59;87.23;102385.75;5110410;28;20054;-72
2023/06/24 06:50:37;;;;;;;21.65;9.93;;;;;;;19.60;89.09;102375.78;5110489;28;20032;-72
2023/06/24 06:53:02;;;;;;;17.98;10.13;;;;;;;19.70;88.21;102387.81;5108622;28;20091;-72
2023/06/24 06:55:28;;;;;;;16.20;9.52;;;;;;;19.78;88.02;102391.28;5108988;28;20059;-72
2023/06/24 06:57:55;;;;;;;17.63;10.30;;;;;;;19.82;85.66;102390.63;5108768;28;20031;-72
2023/06/24 07:00:20;;;;;;;17.58;9.38;;;;;;;19.86;86.20;102393.72;5110161;28;20066;-72
2023/06/24 07:02:45;;;;;;;13.20;8.07;;;;;;;19.86;83.93;102393.72;5109977;28;20439;-72
2023/06/24 07:05:11;;;;;;;16.30;8.88;;;;;;;19.84;83.16;102388.53;5108668;28;20043;-72
2023/06/24 07:07:39;;;;;;;16.80;8.75;;;;;;;19.90;84.72;102405.75;5109729;28;20054;-71
2023/06/24 07:10:05;;;;;;;17.23;8.77;;;;;;;19.90;81.83;102398.47;5110109;28;20080;-72
2023/06/24 07:12:31;;;;;;;17.40;9.10;;;;;;;19.92;81.83;102417.22;5109446;28;20023;-72
2023/06/24 07:14:56;;;;;;;15.30;8.13;;;;;;;19.89;82.57;102413.06;5109717;28;20031;-72
2023/06/24 07:17:22;;;;;;;16.27;9.40;;;;;;;19.94;81.46;102415.13;5109745;28;20027;-72
2023/06/24 07:19:47;;;;;;;17.55;10.57;;;;;;;19.97;81.51;102414.66;5109815;28;20062;-72
2023/06/24 07:22:14;;;;;;;16.02;9.05;;;;;;;19.98;82.41;102410.91;5109974;28;20031;-72
2023/06/24 07:24:39;;;;;;;17.20;8.43;;;;;;;20.04;83.05;102414.59;5109698;28;20035;-72
2023/06/24 07:27:05;;;;;;;17.00;8.93;;;;;;;20.04;80.60;102409.19;5109815;28;21061;-72
2023/06/24 07:29:30;;;;;;;14.85;9.35;;;;;;;20.08;81.28;102408.53;5109677;28;20116;-72
2023/06/24 07:31:56;;;;;;;16.20;8.90;;;;;;;20.16;81.22;102412.00;5108112;28;20440;-72
2023/06/24 07:34:21;;;;;;;18.77;9.48;;;;;;;20.17;78.94;102416.38;5109585;28;20035;-71
2023/06/24 07:36:46;;;;;;;16.10;8.50;;;;;;;20.21;79.50;102414.88;5109564;28;20106;-75
2023/06/24 07:39:12;;;;;;;16.23;8.32;;;;;;;20.27;79.88;102414.81;5109494;28;20027;-76
2023/06/24 07:41:37;;;;;;;16.05;8.23;;;;;;;20.23;78.84;102404.66;5109553;28;20107;-77
2023/06/24 07:44:02;;;;;;;16.55;9.32;;;;;;;20.32;78.77;102398.69;5109170;27;20027;-76
2023/06/24 07:46:28;;;;;;;16.73;8.85;;;;;;;20.42;80.43;102410.94;5109292;28;20027;-76
2023/06/24 07:48:54;;;;;;;15.23;8.52;;;;;;;20.52;81.04;102414.78;5107967;28;20114;-76
2023/06/24 07:51:19;;;;;;;18.83;9.13;;;;;;;20.56;78.97;102410.56;5109173;28;20035;-76
2023/06/24 07:53:45;;;;;;;12.77;6.97;;;;;;;20.61;78.40;102409.06;5109128;28;20435;-76
2023/06/24 07:56:11;;;;;;;16.02;8.75;;;;;;;20.67;78.34;102413.59;5109112;28;20039;-76
2023/06/24 07:58:38;;;;;;;14.52;7.05;;;;;;;20.73;76.48;102413.53;5109263;28;20011;-75
2023/06/24 08:01:04;;;;;;;14.68;7.45;;;;;;;20.84;76.90;102413.81;5109710;28;20089;-76
2023/06/24 08:03:29;;;;;;;14.68;9.00;;;;;;;20.90;75.75;102408.31;5109352;28;20036;-77
2023/06/24 08:05:56;;;;;;;14.75;7.25;;;;;;;20.96;74.64;102414.72;5107841;28;20496;-76
2023/06/24 08:08:21;;;;;;;15.05;7.45;;;;;;;21.04;75.29;102414.41;5109311;28;20038;-76
2023/06/24 08:10:47;;;;;;;13.45;7.28;;;;;;;21.07;75.59;102400.38;5109151;28;20476;-76
2023/06/24 08:13:12;;;;;;;13.23;6.40;;;;;;;21.38;72.77;102412.94;5108988;28;20028;-75
2023/06/24 08:15:38;;;;;;;9.73;4.93;;;;;;;22.00;69.00;102414.47;5109054;28;20036;-75
2023/06/24 08:18:03;;;;;;;10.95;6.50;;;;;;;23.38;66.98;102412.00;5109054;28;20042;-76
2023/06/24 08:20:28;;;;;;;12.75;6.88;;;;;;;25.34;59.14;102398.19;5108958;28;20036;-75
2023/06/24 08:22:54;;;;;;;11.77;5.03;;;;;;;27.20;52.12;102397.13;5108919;28;20523;-75
2023/06/24 08:25:19;;;;;;;8.30;4.80;;;;;;;28.62;47.26;102389.84;5108973;28;20412;-74
2023/06/24 08:27:46;;;;;;;7.13;3.15;;;;;;;29.61;42.87;102390.91;5109402;28;20034;-75
2023/06/24 08:30:13;;;;;;;8.65;4.72;;;;;;;30.97;37.72;102386.91;5107487;28;20032;-74
2023/06/24 08:32:40;;;;;;;6.32;2.83;;;;;;;32.25;34.20;102381.16;5108962;28;20034;-76
2023/06/24 08:35:06;;;;;;;5.10;2.95;;;;;;;33.01;31.99;102384.25;5107770;28;20028;-76
2023/06/24 08:37:32;;;;;;;4.78;2.10;;;;;;;33.71;30.09;102373.69;5108922;28;20042;-75
2023/06/24 08:39:57;;;;;;;5.10;2.55;;;;;;;34.22;30.56;102381.44;5108942;28;20035;-75
2023/06/24 08:42:22;;;;;;;4.28;2.60;;;;;;;34.74;28.60;102377.97;5107638;28;20043;-76
2023/06/24 08:44:48;;;;;;;4.90;2.50;;;;;;;35.01;27.88;102367.72;5107577;28;20035;-76
2023/06/24 08:47:16;;;;;;;3.92;2.63;;;;;;;35.39;27.47;102369.81;5108812;28;20051;-76
2023/06/24 08:49:53;;;;;;;4.15;2.60;;;;;;;35.65;28.82;102378.91;5108239;28;20031;-76
2023/06/24 08:52:20;;;;;;;5.53;2.40;;;;;;;35.85;27.70;102369.03;5108188;28;20052;-75
2023/06/24 08:54:50;;;;;;;4.82;2.50;;;;;;;36.03;26.53;102371.75;5108123;28;20118;-74
2023/06/24 08:57:16;;;;;;;4.50;2.92;;;;;;;35.77;25.98;102370.72;5111533;28;20414;-75
2023/06/24 08:59:42;;;;;;;4.97;2.47;;;;;;;35.50;25.86;102366.38;5112281;28;20102;-75
2023/06/24 09:02:08;;;;;;;3.92;2.45;;;;;;;35.63;25.81;102369.28;5112629;28;20081;-75
2023/06/24 09:04:34;;;;;;;3.80;2.45;;;;;;;36.01;26.36;102360.16;5112798;28;20118;-76
2023/06/24 09:06:59;;;;;;;5.65;2.92;;;;;;;35.63;25.22;102364.53;5112756;28;20031;-76
2023/06/24 09:09:25;;;;;;;4.10;2.85;;;;;;;34.11;27.22;102365.44;5112172;28;20068;-76
2023/06/24 09:11:55;;;;;;;3.63;2.53;;;;;;;32.15;30.90;102360.13;5111597;28;20101;-75
2023/06/24 09:14:21;;;;;;;5.80;3.20;;;;;;;30.63;33.94;102358.72;5112606;27;20027;-75
2023/06/24 09:16:58;;;;;;;5.05;2.60;;;;;;;29.20;35.79;102355.50;5112718;28;20035;-76
2023/06/24 09:19:28;;;;;;;5.20;2.50;;;;;;;27.96;38.40;102360.69;5112376;28;20462;-75
2023/06/24 09:21:53;;;;;;;4.47;3.00;;;;;;;27.43;39.56;102360.16;5112252;28;20475;-76
2023/06/24 09:24:19;;;;;;;5.93;2.95;;;;;;;27.09;40.61;102359.81;5110778;28;20042;-75
2023/06/24 09:26:47;;;;;;;3.30;2.15;;;;;;;26.62;41.03;102347.13;5104171;28;20035;-75
2023/06/24 09:29:15;;;;;;;4.72;2.85;;;;;;;26.49;41.76;102342.09;5100990;28;20435;-75
2023/06/24 09:31:52;;;;;;;3.33;1.92;;;;;;;26.39;40.30;102338.25;5102475;28;20162;-75
2023/06/24 09:34:19;;;;;;;2.72;1.95;;;;;;;26.01;39.06;102342.97;5093487;28;20028;-77
2023/06/24 09:36:50;;;;;;;3.03;1.77;;;;;;;25.91;41.88;102333.88;5100778;28;20130;-74
2023/06/24 09:39:16;;;;;;;6.72;2.20;;;;;;;25.95;40.45;102329.53;5103488;28;20427;-73
2023/06/24 09:41:42;;;;;;;6.22;2.45;;;;;;;25.87;41.05;102325.38;5111544;28;20181;-73
2023/06/24 09:44:11;;;;;;;3.65;2.10;;;;;;;25.91;43.73;102336.59;5110071;28;20035;-73
2023/06/24 09:46:37;;;;;;;3.53;1.75;;;;;;;25.88;41.92;102331.69;5111407;27;20374;-72
2023/06/24 09:49:06;;;;;;;4.53;1.92;;;;;;;25.85;40.94;102327.56;5110990;28;20057;-75
2023/06/24 09:51:37;;;;;;;3.22;1.90;;;;;;;25.92;41.39;102321.88;5111077;27;20065;-74
2023/06/24 09:54:06;;;;;;;4.97;1.95;;;;;;;25.90;40.81;102322.13;5109897;28;20045;-73
2023/06/24 09:56:34;;;;;;;3.08;1.73;;;;;;;25.98;41.27;102315.34;5109110;27;20063;-73
2023/06/24 09:59:00;;;;;;;3.50;1.60;;;;;;;26.08;41.57;102325.50;5109928;28;20031;-74
2023/06/24 10:01:26;;;;;;;3.05;2.10;;;;;;;26.11;41.74;102325.78;5101392;28;20691;-74
2023/06/24 10:03:51;;;;;;;2.85;1.98;;;;;;;26.13;42.42;102326.34;5101477;28;20047;-77
2023/06/24 10:06:17;;;;;;;2.10;1.70;;;;;;;26.08;43.30;102326.31;5102506;28;20039;-75
2023/06/24 10:08:42;;;;;;;3.40;1.90;;;;;;;26.02;41.38;102330.13;5101940;28;20043;-76
2023/06/24 10:11:08;;;;;;;3.60;2.15;;;;;;;26.06;42.85;102325.75;5101918;28;20402;-77
2023/06/24 10:13:34;;;;;;;5.50;1.92;;;;;;;26.15;42.05;102326.91;5101795;28;20032;-76
2023/06/24 10:15:59;;;;;;;3.13;2.28;;;;;;;26.12;42.25;102324.72;5101416;28;20049;-77
2023/06/24 10:18:32;;;;;;;3.38;2.08;;;;;;;26.20;41.92;102321.47;5102474;28;20805;-75
2023/06/24 10:20:58;;;;;;;3.20;1.77;;;;;;;26.32;44.20;102318.50;5101093;28;20092;-73
2023/06/24 10:23:30;;;;;;;2.97;1.55;;;;;;;26.26;39.73;102318.78;5102524;28;20065;-74
2023/06/24 10:25:55;;;;;;;3.45;1.95;;;;;;;26.30;43.31;102322.59;5102667;28;20031;-73
2023/06/24 10:28:21;;;;;;;5.32;2.40;;;;;;;26.39;45.86;102319.09;5101624;28;20552;-74
2023/06/24 10:30:58;;;;;;;6.53;2.50;;;;;;;26.40;42.18;102317.16;5100205;28;20119;-74
2023/06/24 10:33:25;;;;;;;6.13;2.85;;;;;;;26.31;44.14;102314.13;5102069;28;20035;-76
2023/06/24 10:35:51;;;;;;;3.40;2.63;;;;;;;26.30;41.99;102317.94;5101421;28;20110;-73
2023/06/24 10:38:17;;;;;;;3.53;2.22;;;;;;;26.32;41.68;102312.22;5102289;28;20035;-74
2023/06/24 10:40:43;;;;;;;3.72;2.17;;;;;;;26.39;41.68;102313.63;5101407;28;20031;-74
2023/06/24 10:43:24;;;;;;;4.03;1.83;;;;;;;26.57;42.24;102314.28;5100705;28;20045;-76
2023/06/24 10:45:50;;;;;;;6.15;2.78;;;;;;;26.62;40.91;102311.56;5101647;28;20436;-76
2023/06/24 10:48:19;;;;;;;4.13;2.47;;;;;;;26.75;43.13;102301.97;5101463;28;20024;-80
2023/06/24 10:50:45;;;;;;;3.88;2.55;;;;;;;26.82;42.85;102305.28;5085428;28;20039;-77
2023/06/24 10:53:12;;;;;;;5.80;2.20;;;;;;;26.81;40.44;102303.66;5100973;28;20046;-78
2023/06/24 10:55:37;;;;;;;4.97;2.70;;;;;;;26.76;44.27;102298.16;5102116;28;20159;-77
2023/06/24 10:58:11;;;;;;;4.18;2.30;;;;;;;26.79;41.96;102286.66;5101582;28;20080;-79
2023/06/24 11:00:37;;;;;;;5.57;2.75;;;;;;;26.88;41.79;102298.72;5100290;28;20031;-78
2023/06/24 11:03:16;;;;;;;3.72;2.35;;;;;;;27.01;42.45;102289.16;5101157;28;20027;-78
2023/06/24 11:05:43;;;;;;;5.65;2.50;;;;;;;27.16;43.13;102299.28;5102023;28;20478;-77
2023/06/24 11:08:09;;;;;;;4.50;2.40;;;;;;;27.13;42.35;102295.19;5101300;28;20223;-77
2023/06/24 11:10:45;;;;;;;3.38;2.08;;;;;;;27.23;42.01;102291.66;5100703;28;20501;-76